La Porte, Indiana
Current Conditions -  °F | °C
As of 5:55 PM on Saturday 25 Oct 2014 (Local Time) from KPPO Reporting Station
Clear Clear  
Wind Chill: 65°   Ceiling: Unl
Heat Index: 65°   Visibility: 10mi
Dew Point: 35°   Wind: 3mph
Humidity: 32%   Direction: 300°WNW
Pressure: 29.9"   Gusts: NA
Location:  41.61°N, 86.72°W
Report Text: KPPO 252255Z AUTO 30003KT 10SM CLR 19/02 A2990 RMK AO2 T01850015
Loading
Personal Weather Stations






























Interactive Weather Map
Tropical Storm Tracking
New forecast layout! Learn more

10-Day Weather Forecast

Advertisements
Track Severe Weather on mobile